Algona Municipal Airport


Codes: KAXA/AXG
Name: Algona Municipal Airport
City: Algona
Country: United States
Elevation: 1219 ft.
Wikipedia:

Photos at Algona Municipal Airport


   Photos courtesy of SpottingLog. You can add your own sightings and photos by signing up for a free trial today.



No photos found.

Weather at Algona Municipal Airport


Time (UTC)DescriptionTempratureWindCloud coverageVisibilityPressureHumidity
21-Jun-2024 15:00Light Rain21°C11 mph, SW100%10000m1020hPa94%
21-Jun-2024 18:00Light Rain25°C11 mph, SW87%10000m1018hPa79%
21-Jun-2024 21:00Light Rain28°C9 mph, SW48%10000m1015hPa69%
22-Jun-2024 00:00Light Rain27°C7 mph, S47%10000m1014hPa79%
22-Jun-2024 03:00Moderate Rain22°C7 mph, S29%10000m1013hPa94%
22-Jun-2024 06:00Moderate Rain21°C4 mph, S65%2248m1011hPa96%
22-Jun-2024 09:00Heavy Intensity Rain20°C9 mph, E100%217m1009hPa100%
22-Jun-2024 12:00Heavy Intensity Rain21°C11 mph, SW100%10000m1009hPa97%
22-Jun-2024 15:00Light Rain23°C11 mph, SW99%10000m1008hPa92%
22-Jun-2024 18:00Light Rain23°C9 mph, NW100%10000m1007hPa91%
22-Jun-2024 21:00Light Rain24°C7 mph, W99%10000m1007hPa87%
23-Jun-2024 00:00Light Rain24°C11 mph, N99%10000m1007hPa86%
23-Jun-2024 03:00Scattered Clouds20°C7 mph, N30%10000m1009hPa97%
23-Jun-2024 06:00Few Clouds18°C7 mph, NW20%10000m1010hPa98%
23-Jun-2024 09:00Scattered Clouds17°C4 mph, NW30%10000m1010hPa98%
23-Jun-2024 12:00Few Clouds17°C4 mph, NW23%10000m1011hPa95%
23-Jun-2024 15:00Clear Sky23°C7 mph, NW0%10000m1011hPa78%
23-Jun-2024 18:00Clear Sky26°C7 mph, W3%10000m1011hPa57%
23-Jun-2024 21:00Clear Sky28°C7 mph, SW2%10000m1010hPa54%
24-Jun-2024 00:00Clear Sky27°C4 mph, S6%10000m1008hPa69%
24-Jun-2024 03:00Clear Sky22°C4 mph, S6%10000m1008hPa86%
24-Jun-2024 06:00Light Rain21°C7 mph, SW7%10000m1009hPa91%
24-Jun-2024 09:00Light Rain21°C7 mph, S6%10000m1007hPa93%
24-Jun-2024 12:00Clear Sky22°C7 mph, S3%10000m1007hPa94%
24-Jun-2024 15:00Clear Sky27°C7 mph, S1%10000m1006hPa79%
24-Jun-2024 18:00Clear Sky31°C11 mph, S8%10000m1004hPa65%
24-Jun-2024 21:00Clear Sky32°C16 mph, S0%10000m1002hPa69%
25-Jun-2024 00:00Clear Sky30°C16 mph, SW0%10000m1000hPa78%
25-Jun-2024 03:00Few Clouds27°C13 mph, S17%10000m1001hPa87%
25-Jun-2024 06:00Scattered Clouds27°C13 mph, SW30%10000m1001hPa76%
25-Jun-2024 09:00Overcast Clouds24°C9 mph, SW88%10000m1001hPa85%
25-Jun-2024 12:00Broken Clouds24°C7 mph, SW64%10000m1000hPa89%
25-Jun-2024 15:00Moderate Rain24°C9 mph, NE79%10000m1002hPa90%
25-Jun-2024 18:00Broken Clouds29°C9 mph, NE69%10000m1004hPa67%
25-Jun-2024 21:00Clear Sky29°C13 mph, N5%10000m1005hPa65%
26-Jun-2024 00:00Clear Sky24°C13 mph, N2%10000m1006hPa70%
26-Jun-2024 03:00Clear Sky19°C7 mph, NW0%10000m1008hPa79%
26-Jun-2024 06:00Clear Sky19°C7 mph, NW0%10000m1009hPa82%
26-Jun-2024 09:00Clear Sky17°C7 mph, NW0%10000m1010hPa88%
26-Jun-2024 12:00Clear Sky17°C9 mph, NW0%10000m1011hPa88%